createdAt,value
2022-07-25T00:00:14.469Z,99119.33
2022-07-25T00:01:14.489Z,99121.5
2022-07-25T00:02:14.171Z,99125.33
2022-07-25T00:03:14.151Z,99120.89
2022-07-25T00:04:15.292Z,99128.55
2022-07-25T00:05:15.286Z,99126.62
2022-07-25T00:06:17.772Z,99129.02
2022-07-25T00:07:15.331Z,99126.48
2022-07-25T00:08:15.566Z,99128.41
2022-07-25T00:09:15.316Z,99126.1
2022-07-25T00:10:15.698Z,99127.58
2022-07-25T00:11:15.394Z,99128.75
2022-07-25T00:12:15.358Z,99124.52
2022-07-25T00:13:15.358Z,99124.14
2022-07-25T00:14:15.503Z,99126.66
2022-07-25T00:15:15.741Z,99123.66
2022-07-25T00:16:15.487Z,99120.41
2022-07-25T00:17:15.479Z,99123.3
2022-07-25T00:18:15.475Z,99124.8
2022-07-25T00:19:15.597Z,99125.12
2022-07-25T00:20:15.498Z,99123.47
2022-07-25T00:21:15.493Z,99125.12
2022-07-25T00:22:15.704Z,99123.37
2022-07-25T00:23:15.503Z,99123.06
2022-07-25T00:24:15.598Z,99120.44
2022-07-25T00:25:15.540Z,99124.16
2022-07-25T00:26:15.525Z,99121.05
2022-07-25T00:27:15.585Z,99123.12
2022-07-25T00:28:15.648Z,99122.89
2022-07-25T00:29:15.762Z,99123.23
2022-07-25T00:30:15.751Z,99123.48
2022-07-25T00:31:15.719Z,99125.2
2022-07-25T00:32:15.631Z,99125.25
2022-07-25T00:33:15.642Z,99120.33
2022-07-25T00:34:15.738Z,99120.76
2022-07-25T00:35:15.699Z,99123.77
2022-07-25T00:36:15.735Z,99122.27
2022-07-25T00:37:15.700Z,99122.91
2022-07-25T00:38:15.748Z,99121.72
2022-07-25T00:39:15.769Z,99120.03
2022-07-25T00:40:15.932Z,99125.63
2022-07-25T00:41:15.789Z,99109.72
2022-07-25T00:42:15.814Z,99126.24
2022-07-25T00:43:15.984Z,99122.77
2022-07-25T00:44:28.940Z,99125.35
2022-07-25T00:45:20.674Z,99121.69
2022-07-25T00:46:20.740Z,99121.85
2022-07-25T00:47:20.732Z,99120.91
2022-07-25T00:48:20.691Z,99120.32
2022-07-25T00:49:20.905Z,99118.5
2022-07-25T00:50:20.779Z,99116.34
2022-07-25T00:51:20.794Z,99119.7
2022-07-25T00:52:20.735Z,99119.07
2022-07-25T00:53:21.129Z,99121.31
2022-07-25T00:54:21.072Z,99118.23
2022-07-25T00:55:21.315Z,99117.12
2022-07-25T00:56:20.801Z,99115.67
2022-07-25T00:57:20.807Z,99114.12
2022-07-25T00:58:20.848Z,99118.11
2022-07-25T00:59:20.861Z,99112.86
2022-07-25T01:00:20.951Z,99111.05
2022-07-25T01:01:21.031Z,99113.36
2022-07-25T01:02:21.033Z,99114.33
2022-07-25T01:03:21.145Z,99117.09
2022-07-25T01:04:20.923Z,99118.33
2022-07-25T01:05:20.873Z,99112.05
2022-07-25T01:06:21.668Z,99119.91
2022-07-25T01:07:21.830Z,99110.62
2022-07-25T01:08:21.940Z,99112.42
2022-07-25T01:09:21.916Z,99112.2
2022-07-25T01:10:21.559Z,99113.73
2022-07-25T01:11:21.931Z,99113.16
2022-07-25T01:12:21.611Z,99110.58
2022-07-25T01:13:21.654Z,99113.05
2022-07-25T01:14:21.968Z,99115.03
2022-07-25T01:15:22.798Z,99110.69
2022-07-25T01:16:21.912Z,99114.34
2022-07-25T01:17:21.638Z,99112.31
2022-07-25T01:18:21.620Z,99113.59
2022-07-25T01:19:21.683Z,99109.8
2022-07-25T01:20:22.726Z,99113.3
2022-07-25T01:21:23.310Z,99114.4
2022-07-25T01:22:21.719Z,99113.97
2022-07-25T01:23:21.739Z,99115.81
2022-07-25T01:24:21.733Z,99118.66
2022-07-25T01:25:22.235Z,99114.95
2022-07-25T01:26:21.799Z,99115.75
2022-07-25T01:27:21.775Z,99116.66
2022-07-25T01:28:21.801Z,99117.72
2022-07-25T01:29:21.883Z,99113.79
2022-07-25T01:30:23.203Z,99117.63
2022-07-25T01:31:21.905Z,99112.89
2022-07-25T01:32:21.853Z,99118.05
2022-07-25T01:33:21.902Z,99116.62
2022-07-25T01:34:21.955Z,99110.64
2022-07-25T01:35:21.953Z,99117.7
2022-07-25T01:36:21.876Z,99113.22
2022-07-25T01:37:21.903Z,99118.53
2022-07-25T01:38:22.096Z,99117.75
2022-07-25T01:39:21.916Z,99116.75
2022-07-25T01:40:22.030Z,99121.81
2022-07-25T01:41:22.117Z,99117.36
2022-07-25T01:42:22.059Z,99123.84
2022-07-25T01:43:22.133Z,99120.05
2022-07-25T01:44:21.959Z,99126.59
2022-07-25T01:45:22.058Z,99127.3
2022-07-25T01:46:22.177Z,99119.11
2022-07-25T01:47:22.219Z,99125.23
2022-07-25T01:48:22.131Z,99129.84
2022-07-25T01:49:22.007Z,99124.45
2022-07-25T01:50:22.062Z,99126.8
2022-07-25T01:51:22.118Z,99125.91
2022-07-25T01:52:22.080Z,99127.3
2022-07-25T01:53:22.150Z,99129.03
2022-07-25T01:54:22.092Z,99127.84
2022-07-25T01:55:22.305Z,99122.81
2022-07-25T01:56:22.504Z,99126.36
2022-07-25T01:57:22.169Z,99125.28
2022-07-25T01:58:22.236Z,99128.27
2022-07-25T01:59:22.214Z,99127.55
2022-07-25T02:00:22.272Z,99124.91
2022-07-25T02:01:22.680Z,99127.62
2022-07-25T02:02:22.278Z,99127.3
2022-07-25T02:03:22.328Z,99127.94
2022-07-25T02:04:22.356Z,99122.34
2022-07-25T02:05:22.285Z,99125.66
2022-07-25T02:06:22.374Z,99125.84
2022-07-25T02:07:22.283Z,99125.55
2022-07-25T02:08:22.487Z,99134.23
2022-07-25T02:09:22.327Z,99128.63
2022-07-25T02:10:22.316Z,99123.22
2022-07-25T02:11:22.355Z,99133.16
2022-07-25T02:12:22.346Z,99135.68
2022-07-25T02:13:22.417Z,99133.92
2022-07-25T02:14:22.683Z,99135.52
2022-07-25T02:15:22.399Z,99135.03
2022-07-25T02:16:28.789Z,99135.84
2022-07-25T02:17:26.267Z,99139.77
2022-07-25T02:18:26.290Z,99138.41
2022-07-25T02:19:26.180Z,99139.95
2022-07-25T02:20:26.241Z,99142.3
2022-07-25T02:21:26.224Z,99142.7
2022-07-25T02:22:26.195Z,99142.19
2022-07-25T02:23:26.339Z,99142.62
2022-07-25T02:24:26.452Z,99146.3
2022-07-25T02:25:26.205Z,99140.93
2022-07-25T02:26:26.313Z,99147.56
2022-07-25T02:27:26.266Z,99136.67
2022-07-25T02:28:26.302Z,99139.58
2022-07-25T02:29:26.430Z,99136.1
2022-07-25T02:30:26.378Z,99140.95
2022-07-25T02:31:26.416Z,99136
2022-07-25T02:32:26.347Z,99137.84
2022-07-25T02:33:26.564Z,99137.44
2022-07-25T02:34:26.397Z,99138.74
2022-07-25T02:35:26.438Z,99136.23
2022-07-25T02:36:26.457Z,99137.41
2022-07-25T02:37:26.472Z,99141.17
2022-07-25T02:38:26.452Z,99138.48
2022-07-25T02:39:26.575Z,99134.31
2022-07-25T02:40:26.842Z,99140.71
2022-07-25T02:41:26.488Z,99142.26
2022-07-25T02:42:26.533Z,99145.72
2022-07-25T02:43:26.641Z,99136.81
2022-07-25T02:44:26.626Z,99142.27
2022-07-25T02:45:26.551Z,99142.3
2022-07-25T02:46:26.605Z,99137.33
2022-07-25T02:47:26.595Z,99139.44
2022-07-25T02:48:26.701Z,99143.7
2022-07-25T02:49:26.662Z,99143.86
2022-07-25T02:50:26.824Z,99144.85
2022-07-25T02:51:26.732Z,99149.61
2022-07-25T02:52:26.690Z,99144.88
2022-07-25T02:53:47.225Z,99147.3
2022-07-25T02:54:27.853Z,99145.5
2022-07-25T02:55:27.869Z,99146.12
2022-07-25T02:56:30.068Z,99149.36
2022-07-25T02:57:28.014Z,99151.73
2022-07-25T02:58:27.924Z,99152.33
2022-07-25T02:59:32.397Z,99149.41
2022-07-25T03:00:28.738Z,99150.58
2022-07-25T03:01:28.999Z,99150.81
2022-07-25T03:02:28.754Z,99149.95
2022-07-25T03:03:28.965Z,99154.91
2022-07-25T03:04:28.904Z,99160.83
2022-07-25T03:05:28.986Z,99154.53
2022-07-25T03:06:28.858Z,99157.94
2022-07-25T03:07:28.888Z,99157.05
2022-07-25T03:08:28.853Z,99155.81
2022-07-25T03:09:28.922Z,99160.09
2022-07-25T03:10:28.881Z,99155.63
2022-07-25T03:11:28.889Z,99160.84
2022-07-25T03:12:28.964Z,99160.73
2022-07-25T03:13:28.935Z,99160.44
2022-07-25T03:14:29.000Z,99155.58
2022-07-25T03:15:28.989Z,99157.94
2022-07-25T03:16:29.208Z,99164.97
2022-07-25T03:17:29.015Z,99159.67
2022-07-25T03:18:29.002Z,99165.97
2022-07-25T03:19:29.121Z,99160.73
2022-07-25T03:20:29.038Z,99163.38
2022-07-25T03:21:29.152Z,99163.32
2022-07-25T03:22:29.072Z,99163.83
2022-07-25T03:23:29.109Z,99161.8
2022-07-25T03:24:29.135Z,99162.84
2022-07-25T03:25:29.226Z,99158.98
2022-07-25T03:26:29.211Z,99166.52
2022-07-25T03:27:29.227Z,99172.86
2022-07-25T03:28:29.214Z,99168.3
2022-07-25T03:29:29.229Z,99169.53
2022-07-25T03:30:29.198Z,99170.69
2022-07-25T03:31:29.292Z,99171.24
2022-07-25T03:32:29.238Z,99169.01
2022-07-25T03:33:29.391Z,99169.12
2022-07-25T03:34:29.239Z,99172.41
2022-07-25T03:35:29.299Z,99174.33
2022-07-25T03:36:29.278Z,99169.32
2022-07-25T03:37:29.499Z,99176.65
2022-07-25T03:38:29.312Z,99177.61
2022-07-25T03:39:29.814Z,99174.61
2022-07-25T03:40:29.410Z,99180.5
2022-07-25T03:41:29.406Z,99178.25
2022-07-25T03:42:34.956Z,99181.88
2022-07-25T03:43:32.095Z,99185.77
2022-07-25T03:44:32.011Z,99183.62
2022-07-25T03:45:32.326Z,99183.85
2022-07-25T03:46:32.095Z,99181.89
2022-07-25T03:47:32.243Z,99185.87
2022-07-25T03:48:32.150Z,99183.17
2022-07-25T03:49:32.117Z,99191.25
2022-07-25T03:50:32.163Z,99184.3
2022-07-25T03:51:32.106Z,99182.95
2022-07-25T03:52:32.178Z,99189.41
2022-07-25T03:53:32.174Z,99189.28
2022-07-25T03:54:32.138Z,99186.06
2022-07-25T03:55:32.244Z,99184.84
2022-07-25T03:57:34.905Z,99190.08
2022-07-25T03:58:34.952Z,99190.66
2022-07-25T03:59:34.964Z,99191.23
2022-07-25T04:00:35.025Z,99190.43
2022-07-25T04:01:35.373Z,99192.73
2022-07-25T04:02:35.276Z,99189.52
2022-07-25T04:03:36.049Z,99190.8
2022-07-25T04:04:35.060Z,99185.67
2022-07-25T04:05:35.458Z,99188.13
2022-07-25T04:06:35.110Z,99188.68
2022-07-25T04:07:35.755Z,99188.88
2022-07-25T04:08:35.109Z,99193.3
2022-07-25T04:09:35.123Z,99194.34
2022-07-25T04:10:35.181Z,99195.22
2022-07-25T04:11:35.532Z,99192.2
2022-07-25T04:12:35.181Z,99193.88
2022-07-25T04:13:35.198Z,99193.98
2022-07-25T04:14:35.214Z,99193.75
2022-07-25T04:15:35.232Z,99196.36
2022-07-25T04:16:35.336Z,99195.97
2022-07-25T04:17:35.299Z,99196.95
2022-07-25T04:18:35.845Z,99192.42
2022-07-25T04:19:35.710Z,99194.9
2022-07-25T04:20:35.762Z,99193.48
2022-07-25T04:21:36.232Z,99197.93
2022-07-25T04:22:35.920Z,99200
2022-07-25T04:23:35.887Z,99196.31
2022-07-25T04:24:35.886Z,99198.58
2022-07-25T04:25:35.840Z,99197.86
2022-07-25T04:26:35.849Z,99201.67
2022-07-25T04:27:35.917Z,99197.73
2022-07-25T04:28:35.873Z,99203.34
2022-07-25T04:29:35.886Z,99199.81
2022-07-25T04:30:35.935Z,99198.45
2022-07-25T04:31:36.010Z,99201.75
2022-07-25T04:32:36.015Z,99201.79
2022-07-25T04:33:39.339Z,99202.47
2022-07-25T04:34:36.021Z,99197.59
2022-07-25T04:35:35.988Z,99202.44
2022-07-25T04:36:35.988Z,99201.61
2022-07-25T04:37:36.057Z,99204.69
2022-07-25T04:38:36.073Z,99205.53
2022-07-25T04:39:36.062Z,99200.07
2022-07-25T04:40:36.137Z,99208.73
2022-07-25T04:41:36.118Z,99203.83
2022-07-25T04:42:36.118Z,99200.8
2022-07-25T04:43:36.124Z,99203.62
2022-07-25T04:44:36.148Z,99203.36
2022-07-25T04:45:36.484Z,99198.84
2022-07-25T04:46:36.156Z,99196.6
2022-07-25T04:47:36.215Z,99198.03
2022-07-25T04:48:36.258Z,99195.75
2022-07-25T04:49:36.229Z,99199.59
2022-07-25T04:50:36.233Z,99197.89
2022-07-25T04:51:36.236Z,99196.88
2022-07-25T04:52:36.292Z,99198.05
2022-07-25T04:53:36.358Z,99195.75
2022-07-25T04:54:36.283Z,99203.11
2022-07-25T04:55:36.474Z,99201.25
2022-07-25T04:56:36.493Z,99200.59
2022-07-25T04:57:36.528Z,99198.16
2022-07-25T04:58:36.373Z,99196.16
2022-07-25T04:59:36.383Z,99199.69
2022-07-25T05:00:36.500Z,99196.7
2022-07-25T05:01:36.587Z,99199.56
2022-07-25T05:02:36.728Z,99202.92
2022-07-25T05:03:36.433Z,99204.49
2022-07-25T05:04:36.434Z,99200.38
2022-07-25T05:05:41.147Z,99203
2022-07-25T05:06:41.182Z,99200.88
2022-07-25T05:07:41.183Z,99203.91
2022-07-25T05:08:41.190Z,99212.45
2022-07-25T05:09:41.229Z,99207.32
2022-07-25T05:10:41.401Z,99206.83
2022-07-25T05:11:46.606Z,99209.31
2022-07-25T05:12:44.174Z,99214.51
2022-07-25T05:13:44.205Z,99213.14
2022-07-25T05:14:44.299Z,99207.99
2022-07-25T05:15:44.246Z,99216.05
2022-07-25T05:16:44.321Z,99216.34
2022-07-25T05:17:44.473Z,99218.48
2022-07-25T05:18:44.275Z,99211.28
2022-07-25T05:19:44.274Z,99212.33
2022-07-25T05:20:44.445Z,99213.45
2022-07-25T05:21:44.311Z,99212.03
2022-07-25T05:22:44.380Z,99213.78
2022-07-25T05:23:44.512Z,99211.33
2022-07-25T05:24:44.405Z,99217.02
2022-07-25T05:25:44.569Z,99215.98
2022-07-25T05:26:44.449Z,99217.8
2022-07-25T05:27:44.449Z,99216.89
2022-07-25T05:28:44.440Z,99215.19
2022-07-25T05:29:44.442Z,99213.84
2022-07-25T05:30:44.459Z,99217.77
2022-07-25T05:31:44.833Z,99220.09
2022-07-25T05:32:44.511Z,99217.03
2022-07-25T05:33:44.564Z,99220.93
2022-07-25T05:34:44.775Z,99222.97
2022-07-25T05:35:44.600Z,99224.91
2022-07-25T05:36:47.301Z,99228.16
2022-07-25T05:37:44.563Z,99227.66
2022-07-25T05:38:44.595Z,99226.75
2022-07-25T05:39:44.624Z,99228.72
2022-07-25T05:40:44.610Z,99232.28
2022-07-25T05:41:44.627Z,99232.28
2022-07-25T05:42:44.786Z,99229.34
2022-07-25T05:43:44.683Z,99231.41
2022-07-25T05:44:44.732Z,99227.61
2022-07-25T05:45:44.677Z,99230.89
2022-07-25T05:46:44.841Z,99230.94
2022-07-25T05:47:44.707Z,99231.64
2022-07-25T05:48:45.051Z,99228.95
2022-07-25T05:49:44.748Z,99232.88
2022-07-25T05:50:44.772Z,99235.09
2022-07-25T05:51:44.810Z,99232.34
2022-07-25T05:52:44.843Z,99230.92
2022-07-25T05:53:45.042Z,99229.91
2022-07-25T05:54:44.842Z,99234.86
2022-07-25T05:55:44.903Z,99233.24
2022-07-25T05:56:44.930Z,99235.3
2022-07-25T05:57:44.950Z,99227.23
2022-07-25T05:58:45.157Z,99232.94
2022-07-25T05:59:44.995Z,99235.09
2022-07-25T06:00:44.951Z,99236.7
2022-07-25T06:01:45.331Z,99237.09
2022-07-25T06:02:45.166Z,99241.35
2022-07-25T06:03:45.054Z,99240.33
2022-07-25T06:04:45.020Z,99242.29
2022-07-25T06:05:45.973Z,99242.7
2022-07-25T06:06:45.047Z,99247.09
2022-07-25T06:07:45.045Z,99246.48
2022-07-25T06:08:45.359Z,99245.22
2022-07-25T06:09:45.129Z,99247.02
2022-07-25T06:10:45.168Z,99241.59
2022-07-25T06:11:54.365Z,99244.78
2022-07-25T06:12:49.499Z,99252.28
2022-07-25T06:13:49.304Z,99245.45
2022-07-25T06:14:49.322Z,99250.1
2022-07-25T06:16:49.427Z,99248.05
2022-07-25T06:17:49.430Z,99248.17
2022-07-25T06:18:49.410Z,99252.88
2022-07-25T06:19:49.448Z,99255.64
2022-07-25T06:20:49.696Z,99251
2022-07-25T06:21:49.643Z,99254.27
2022-07-25T06:22:49.528Z,99255.58
2022-07-25T06:23:49.478Z,99255.52
2022-07-25T06:24:49.642Z,99253.72
2022-07-25T06:25:49.964Z,99253.95
2022-07-25T06:26:49.526Z,99257.89
2022-07-25T06:27:49.540Z,99258.46
2022-07-25T06:28:49.584Z,99260.8
2022-07-25T06:29:49.735Z,99259.38
2022-07-25T06:30:49.589Z,99257.27
2022-07-25T06:31:49.728Z,99265.86
2022-07-25T06:32:49.909Z,99264.12
2022-07-25T06:33:49.643Z,99259.27
2022-07-25T06:34:49.693Z,99258.52
2022-07-25T06:35:49.669Z,99260.23
2022-07-25T06:36:49.709Z,99257.89
2022-07-25T06:37:49.706Z,99257.31
2022-07-25T06:38:49.701Z,99253.57
2022-07-25T06:39:49.795Z,99249.95
2022-07-25T06:40:49.723Z,99253.48
2022-07-25T06:41:49.765Z,99251.75
2022-07-25T06:42:49.816Z,99249.96
2022-07-25T06:43:49.791Z,99249.69
2022-07-25T06:44:49.820Z,99249.19
2022-07-25T06:45:49.958Z,99243.7
2022-07-25T06:46:50.207Z,99253.88
2022-07-25T06:47:50.033Z,99249.73
2022-07-25T06:48:50.014Z,99255.67
2022-07-25T06:49:49.895Z,99250.81
2022-07-25T06:50:50.673Z,99250.17
2022-07-25T06:51:49.939Z,99254.7
2022-07-25T06:52:49.932Z,99253.83
2022-07-25T06:53:49.940Z,99251.33
2022-07-25T06:54:49.982Z,99254.08
2022-07-25T06:55:50.039Z,99250.75
2022-07-25T06:56:50.027Z,99250.39
2022-07-25T06:57:50.036Z,99250.75
2022-07-25T06:58:50.118Z,99251.62
2022-07-25T06:59:50.077Z,99246.62
2022-07-25T07:00:50.181Z,99250.73
2022-07-25T07:01:51.791Z,99249.11
2022-07-25T07:02:54.594Z,99249.14
2022-07-25T07:03:51.002Z,99246.61
2022-07-25T07:04:50.965Z,99244.8
2022-07-25T07:05:50.911Z,99245.59
2022-07-25T07:06:50.896Z,99247.62
2022-07-25T07:07:51.105Z,99243.75
2022-07-25T07:08:50.989Z,99244.79
2022-07-25T07:09:51.035Z,99249.7
2022-07-25T07:10:50.996Z,99249.23
2022-07-25T07:11:51.116Z,99248.66
2022-07-25T07:12:51.133Z,99249.56
2022-07-25T07:13:51.032Z,99255.17
2022-07-25T07:14:51.114Z,99251.48
2022-07-25T07:15:51.391Z,99247.52
2022-07-25T07:16:51.163Z,99249.75
2022-07-25T07:17:51.099Z,99253.72
2022-07-25T07:18:51.117Z,99251.51
2022-07-25T07:19:51.219Z,99251.39
2022-07-25T07:20:51.288Z,99256.93
2022-07-25T07:21:51.162Z,99253.27
2022-07-25T07:22:51.207Z,99251.06
2022-07-25T07:23:53.522Z,99250.39
2022-07-25T07:24:51.385Z,99248.36
2022-07-25T07:25:51.432Z,99254.45
2022-07-25T07:26:51.839Z,99245.52
2022-07-25T07:27:51.279Z,99245.28
2022-07-25T07:28:51.315Z,99241.39
2022-07-25T07:29:51.342Z,99247.17
2022-07-25T07:31:16.280Z,99251.74
2022-07-25T07:31:52.863Z,99252.77
2022-07-25T07:32:52.600Z,99255.23
2022-07-25T07:33:52.542Z,99255.77
2022-07-25T07:34:52.670Z,99249.98
2022-07-25T07:35:52.547Z,99255.08
2022-07-25T07:36:52.731Z,99255.01
2022-07-25T07:37:52.609Z,99258.89
2022-07-25T07:38:52.733Z,99254.16
2022-07-25T07:39:52.688Z,99258.81
2022-07-25T07:40:53.257Z,99258.48
2022-07-25T07:41:52.656Z,99256.27
2022-07-25T07:42:52.973Z,99259.61
2022-07-25T07:43:52.695Z,99261.33
2022-07-25T07:44:52.721Z,99260.34
2022-07-25T07:45:52.732Z,99257.14
2022-07-25T07:46:52.845Z,99260.09
2022-07-25T07:47:53.624Z,99259.22
2022-07-25T07:48:52.869Z,99263.22
2022-07-25T07:49:52.779Z,99258.58
2022-07-25T07:50:52.886Z,99258.84
2022-07-25T07:51:52.842Z,99256.84
2022-07-25T07:52:53.415Z,99254.29
2022-07-25T07:53:52.945Z,99256.47
2022-07-25T07:54:56.471Z,99253.27
2022-07-25T07:55:55.499Z,99251.28
2022-07-25T07:56:55.515Z,99255.26
2022-07-25T07:57:55.937Z,99250.11
2022-07-25T07:58:55.579Z,99251.24
2022-07-25T07:59:55.559Z,99254.41
2022-07-25T08:00:55.662Z,99248.45
2022-07-25T08:01:56.280Z,99252.38
2022-07-25T08:02:55.721Z,99252.16
2022-07-25T08:03:55.660Z,99248.5
2022-07-25T08:04:55.648Z,99252.73
2022-07-25T08:05:55.756Z,99251.21
2022-07-25T08:06:55.690Z,99251.66
2022-07-25T08:07:55.927Z,99253.88
2022-07-25T08:08:55.738Z,99254.3
2022-07-25T08:09:55.707Z,99250.48
2022-07-25T08:10:58.945Z,99253.3
2022-07-25T08:11:55.760Z,99257.06
2022-07-25T08:12:55.830Z,99253.97
2022-07-25T08:13:55.824Z,99252
2022-07-25T08:14:55.804Z,99259.32
2022-07-25T08:15:57.273Z,99260.01
2022-07-25T08:16:55.819Z,99254.44
2022-07-25T08:17:55.851Z,99260.42
2022-07-25T08:18:55.885Z,99249.8
2022-07-25T08:20:02.026Z,99255.95
2022-07-25T08:20:56.954Z,99253.61
2022-07-25T08:21:56.526Z,99255.03
2022-07-25T08:22:56.864Z,99252.43
2022-07-25T08:23:56.543Z,99257.98
2022-07-25T08:24:56.567Z,99257.72
2022-07-25T08:25:56.527Z,99258.23
2022-07-25T08:26:56.570Z,99258.02
2022-07-25T08:27:56.889Z,99262.17
2022-07-25T08:29:17.459Z,99258.3
2022-07-25T08:29:57.829Z,99262.15
2022-07-25T08:30:58.163Z,99257.19
2022-07-25T08:31:57.862Z,99257.58
2022-07-25T08:33:00.729Z,99255.91
2022-07-25T08:33:57.924Z,99263.46
2022-07-25T08:34:58.061Z,99265.58
2022-07-25T08:35:57.956Z,99265.05
2022-07-25T08:36:57.943Z,99266.62
2022-07-25T08:37:58.499Z,99265.58
2022-07-25T08:38:58.059Z,99262.88
2022-07-25T08:39:57.988Z,99264.16
2022-07-25T08:40:58.265Z,99262.08
2022-07-25T08:41:58.592Z,99261.3
2022-07-25T08:42:58.085Z,99264.14
2022-07-25T08:43:58.270Z,99264.75
2022-07-25T08:44:59.231Z,99266.53
2022-07-25T08:45:59.997Z,99269.78
2022-07-25T08:46:59.590Z,99266.91
2022-07-25T08:47:58.159Z,99269.89
2022-07-25T08:48:58.440Z,99263.48
2022-07-25T08:50:02.354Z,99265.41
2022-07-25T08:51:02.032Z,99269.23
2022-07-25T08:52:00.930Z,99262.31
2022-07-25T08:53:31.065Z,99264.88
2022-07-25T08:54:03.109Z,99265.47
2022-07-25T08:55:02.934Z,99268.47
2022-07-25T08:56:11.530Z,99263.31
2022-07-25T08:57:03.908Z,99274.38
2022-07-25T08:58:03.784Z,99278.16
2022-07-25T08:59:03.894Z,99274.61
2022-07-25T09:00:06.140Z,99271.16
2022-07-25T09:01:03.873Z,99275.45
2022-07-25T09:02:04.061Z,99275.03
2022-07-25T09:03:04.222Z,99276.56
2022-07-25T09:04:04.509Z,99276.98
2022-07-25T09:05:04.434Z,99276.82
2022-07-25T09:07:08.257Z,99281.02
2022-07-25T09:08:07.366Z,99280.36
2022-07-25T09:09:06.280Z,99281.02
2022-07-25T09:10:16.815Z,99275.64
2022-07-25T09:11:08.584Z,99284.3
2022-07-25T09:12:08.596Z,99273.61
2022-07-25T09:13:10.371Z,99277.66
2022-07-25T09:14:15.083Z,99280.11
2022-07-25T09:15:22.249Z,99289.97
2022-07-25T09:16:14.767Z,99289.2
2022-07-25T09:17:22.465Z,99284.64
2022-07-25T09:18:16.976Z,99288.77
2022-07-25T09:19:20.042Z,99289.14
2022-07-25T09:20:18.600Z,99289.62
2022-07-25T09:21:16.757Z,99291.41
2022-07-25T09:22:16.925Z,99291.58
2022-07-25T09:24:17.716Z,99286
2022-07-25T09:26:19.979Z,99291.58
2022-07-25T09:27:20.121Z,99290.32
2022-07-25T09:28:20.031Z,99294.75
2022-07-25T09:30:23.709Z,99291.91
2022-07-25T09:32:28.088Z,99298
2022-07-25T09:33:28.934Z,99290.74
2022-07-25T09:35:32.212Z,99299.59
2022-07-25T09:36:31.549Z,99299.52
2022-07-25T09:37:31.583Z,99298.05
2022-07-25T09:38:31.552Z,99297.28
2022-07-25T09:40:33.741Z,99299.98
2022-07-25T09:41:34.953Z,99296.02
2022-07-25T09:42:33.814Z,99299.43
2022-07-25T09:43:42.514Z,99298.13
2022-07-25T09:44:34.339Z,99297.97
2022-07-25T09:45:34.236Z,99302.02
2022-07-25T09:46:34.318Z,99300.66
2022-07-25T09:47:36.013Z,99298.59
2022-07-25T09:48:35.222Z,99299.52
2022-07-25T09:49:38.990Z,99307.16
2022-07-25T09:50:35.643Z,99305.94
2022-07-25T09:51:35.939Z,99299.42
2022-07-25T09:52:37.846Z,99305.03
2022-07-25T09:53:35.776Z,99305.02
2022-07-25T09:54:35.952Z,99308.25
2022-07-25T09:55:35.747Z,99301.84
2022-07-25T09:56:35.833Z,99304.23
2022-07-25T09:57:35.785Z,99299.75
2022-07-25T09:58:35.794Z,99297.19
2022-07-25T09:59:36.091Z,99298.58
2022-07-25T10:00:35.841Z,99302.12
2022-07-25T10:01:39.216Z,99304.83
2022-07-25T10:06:50.239Z,99302.83
2022-07-25T10:07:47.897Z,99298.09
2022-07-25T10:08:47.608Z,99305.34
2022-07-25T10:09:49.302Z,99306.55
2022-07-25T10:10:47.101Z,99304.53
2022-07-25T10:13:52.860Z,99310.48
2022-07-25T10:15:55.641Z,99313.41
2022-07-25T10:16:55.666Z,99306.66
2022-07-25T10:18:04.562Z,99307.43
2022-07-25T10:18:57.229Z,99315.77
2022-07-25T10:19:58.930Z,99309.56
2022-07-25T10:21:24.559Z,99311.84
2022-07-25T10:21:57.777Z,99316.2
2022-07-25T10:22:58.468Z,99313.27
2022-07-25T10:24:05.440Z,99311.45
2022-07-25T10:25:09.730Z,99314.76
2022-07-25T10:26:13.983Z,99303.38
2022-07-25T10:27:12.110Z,99306.58
2022-07-25T10:28:10.877Z,99309.26
2022-07-25T10:29:11.619Z,99306.16
2022-07-25T10:30:18.944Z,99311.23
2022-07-25T10:32:17.584Z,99305.81
2022-07-25T10:33:18.312Z,99306.05
2022-07-25T10:35:19.030Z,99312.8
2022-07-25T10:36:19.740Z,99311.55
2022-07-25T10:37:19.176Z,99311.3
2022-07-25T10:38:24.975Z,99318.67
2022-07-25T10:39:21.583Z,99313.05
2022-07-25T10:40:25.281Z,99317.41
2022-07-25T10:41:23.557Z,99315.52
2022-07-25T10:42:22.174Z,99315.09
2022-07-25T10:43:22.570Z,99316.61
2022-07-25T10:44:21.758Z,99320.25
2022-07-25T10:45:21.576Z,99320.7
2022-07-25T10:46:21.706Z,99320.88
2022-07-25T10:47:23.164Z,99316.74
2022-07-25T10:48:29.673Z,99320.69
2022-07-25T10:49:31.805Z,99319.05
2022-07-25T10:50:54.425Z,99316.34
2022-07-25T10:51:32.901Z,99316.08
2022-07-25T10:52:31.948Z,99318.17
2022-07-25T10:54:35.740Z,99319.34
2022-07-25T10:55:35.541Z,99316.67
2022-07-25T10:56:36.579Z,99315.64
2022-07-25T10:57:35.759Z,99314.91
2022-07-25T10:58:41.793Z,99316.27
2022-07-25T10:59:39.275Z,99313.02
2022-07-25T11:00:42.934Z,99315.86
2022-07-25T11:01:39.186Z,99314.09
2022-07-25T11:02:39.646Z,99309.95
2022-07-25T11:03:39.896Z,99314.28
2022-07-25T11:04:39.284Z,99305.33
2022-07-25T11:05:46.159Z,99311.83
2022-07-25T11:06:43.016Z,99305.74
2022-07-25T11:08:19.091Z,99309.44
2022-07-25T11:08:44.111Z,99307.58
2022-07-25T11:09:44.021Z,99309.45
2022-07-25T11:10:50.277Z,99312.14
2022-07-25T11:11:48.550Z,99306.81
2022-07-25T11:12:47.227Z,99308.01
2022-07-25T11:13:47.049Z,99310.88
2022-07-25T11:14:47.116Z,99310.8
2022-07-25T11:15:46.986Z,99313.65
2022-07-25T11:16:48.265Z,99308.02
2022-07-25T11:17:50.952Z,99307.27
2022-07-25T11:18:47.737Z,99307.86
2022-07-25T11:20:59.849Z,99305.56
2022-07-25T11:22:00.188Z,99306.15
2022-07-25T11:22:56.391Z,99304.89
2022-07-25T11:23:56.451Z,99305.39
2022-07-25T11:24:57.000Z,99304.75
2022-07-25T11:27:00.838Z,99299.36
2022-07-25T11:28:01.259Z,99301.71
2022-07-25T11:29:00.874Z,99306.99
2022-07-25T11:30:10.617Z,99304.03
2022-07-25T11:31:04.868Z,99301.62
2022-07-25T11:32:03.312Z,99303.92
2022-07-25T11:33:01.913Z,99302.3
2022-07-25T11:34:02.095Z,99302.5
2022-07-25T11:35:01.893Z,99299.79
2022-07-25T11:36:02.272Z,99300.44
2022-07-25T11:37:03.297Z,99301.38
2022-07-25T11:38:02.718Z,99300.97
2022-07-25T11:39:02.039Z,99299.27
2022-07-25T11:40:02.182Z,99303.34
2022-07-25T11:41:02.057Z,99305.31
2022-07-25T11:42:09.436Z,99298.55
2022-07-25T11:43:05.633Z,99299.27
2022-07-25T11:44:05.694Z,99297.45
2022-07-25T11:45:15.474Z,99297.61
2022-07-25T11:46:07.604Z,99293.87
2022-07-25T11:47:08.345Z,99294.89
2022-07-25T11:48:10.711Z,99297.45
2022-07-25T11:49:07.414Z,99291.52
2022-07-25T11:50:07.218Z,99291.47
2022-07-25T11:51:14.862Z,99290.72
2022-07-25T11:52:18.003Z,99289.17
2022-07-25T11:53:13.293Z,99289.73
2022-07-25T11:54:10.441Z,99287.09
2022-07-25T11:55:10.838Z,99286.66
2022-07-25T11:56:40.687Z,99289.94
2022-07-25T11:57:19.741Z,99289.59
2022-07-25T11:58:17.251Z,99294.48
2022-07-25T11:59:15.961Z,99285.77
2022-07-25T12:00:19.904Z,99288.06
2022-07-25T12:01:16.125Z,99286.98
2022-07-25T12:03:20.581Z,99284.97
2022-07-25T12:04:18.806Z,99285.52
2022-07-25T12:06:29.053Z,99283.09
2022-07-25T12:08:36.681Z,99284.03
2022-07-25T12:09:32.892Z,99288.68
2022-07-25T12:10:34.083Z,99282.06
2022-07-25T12:11:33.216Z,99282.87
2022-07-25T12:13:37.564Z,99282.75
2022-07-25T12:14:43.449Z,99281.02